• Join FlightAware (Why Join?)
  • Login
  • US Flag 
03:01PM EDT


 

Airport Tracker/Info


-or-


 

Live Flight TrackerFlight Track Log ✈ SWA1035 ✈ 03-Aug-2013 ✈ KLAX - KSMF

Flight Track Log - Related Links

Times and Time Zones

All times are in EDT time to prevent confusion due to time zone crossing. See the SWA1035 flight status page for this flight to view local times or setup timezone preferences in your user account.

Time Position Orientation Groundspeed Altitude Reporting Facility
EDT Latitude Longitude Course Direction KTS MPH feet Rate Location/Type
08:58PM 33.9394 -118.5506 266° West 234 269 4,600  Level Los Angeles Center
08:59PM 33.9431 -118.6475 273° West 278 320 7,800 2,100 Climbing Los Angeles Center
09:00PM 34.0083 -118.7042 324° Northwest 290 334 9,000 540 Climbing Los Angeles Center
09:01PM 34.0825 -118.6764 17° North 293 337 9,000 240 Level Los Angeles Center
09:02PM 34.1564 -118.6336 26° Northeast 292 336 9,600 1,920 Climbing Los Angeles Center
09:03PM 34.2553 -118.6367 359° North 308 354 13,400 3,480 Climbing Los Angeles Center
09:05PM 34.3408 -118.6719 341° North 323 372 16,900 2,580 Climbing Los Angeles Center
09:06PM 34.4167 -118.7028 341° North 356 410 18,700 2,520 Climbing Los Angeles Center
09:07PM 34.5386 -118.7522 342° North 386 444 22,100 2,820 Climbing Los Angeles Center
09:08PM 34.6453 -118.7964 341° North 402 463 24,600 2,580 Climbing Los Angeles Center
09:09PM 34.7839 -118.8542 341° North 434 499 27,400 2,400 Climbing Los Angeles Center
09:10PM 34.8950 -118.9022 340° North 449 517 29,600 1,740 Climbing Los Angeles Center
09:11PM 35.0086 -118.9542 339° North 454 522 31,400 1,740 Climbing Los Angeles Center
09:12PM 35.1575 -119.0222 340° North 475 547 33,600 2,220 Climbing Los Angeles Center
09:13PM 35.3089 -119.0875 341° North 482 555 36,000 1,860 Climbing Los Angeles Center
09:14PM 35.4319 -119.1436 340° North 476 548 37,500 1,320 Climbing Los Angeles Center
09:16PM 35.6267 -119.2314 340° North 472 543 39,800 1,080 Climbing Oakland Center
09:16PM 35.6786 -119.2569 338° Northwest 476 548 40,000 120 Climbing Los Angeles Center
09:17PM 35.8281 -119.3253 340° North 481 554 40,000  Level Los Angeles Center
09:18PM 35.8983 -119.3667 334° Northwest 480 552 40,000  Level Oakland Center
09:19PM 36.0153 -119.4419 333° Northwest 477 549 40,000  Level Oakland Center
09:20PM 36.1342 -119.5161 333° Northwest 482 555 40,000  Level Oakland Center
09:21PM 36.2528 -119.5914 333° Northwest 483 556 40,000  Level Oakland Center
09:22PM 36.3711 -119.6667 333° Northwest 481 554 40,000  Level Oakland Center
09:23PM 36.4897 -119.7419 333° Northwest 480 552 40,000  Level Oakland Center
09:24PM 36.6078 -119.8183 333° Northwest 479 551 40,000  Level Oakland Center
09:25PM 36.7264 -119.8936 333° Northwest 480 552 40,000 -1,080 Level Oakland Center
09:26PM 36.8425 -119.9700 332° Northwest 473 544 37,900 -2,460 Descending Oakland Center
09:27PM 36.9592 -120.0467 332° Northwest 475 547 35,000 -1,920 Descending Oakland Center
09:28PM 37.0850 -120.1300 332° Northwest 465 535 34,000 -2,700 Descending Oakland Center
09:29PM 37.1928 -120.2003 333° Northwest 442 509 29,600 -3,720 Descending Oakland Center
09:30PM 37.3100 -120.2775 332° Northwest 469 540 26,600 -2,760 Descending Oakland Center
09:31PM 37.4206 -120.3494 333° Northwest 452 520 24,100 -2,040 Descending Oakland Center
09:32PM 37.5000 -120.4167 326° Northwest 410 472 23,200 -1,140 Descending Northern Cal TRACON
09:32PM 37.5667 -120.5000 315° West 399 459 22,300 -1,200 Descending Northern Cal TRACON
09:33PM 37.6500 -120.5833 322° Northwest 390 449 21,000 -1,260 Descending Northern Cal TRACON
09:34PM 37.7500 -120.6667 327° Northwest 391 450 19,800 -1,200 Descending Northern Cal TRACON
09:35PM 37.8167 -120.7500 315° West 381 438 18,600 -1,260 Descending Northern Cal TRACON
09:36PM 37.9000 -120.8333 322° Northwest 375 432 17,300 -1,260 Descending Northern Cal TRACON
09:37PM 37.9378 -120.8869 312° West 370 426 16,700 -900 Descending Oakland Center
09:38PM 38.0081 -120.9808 314° West 366 421 16,000 -360 Descending Oakland Center
09:39PM 38.0778 -121.0733 314° West 360 414 16,000  Level Oakland Center
09:40PM 38.1489 -121.1644 315° West 361 415 16,000 -1,020 Level Oakland Center
09:41PM 38.2189 -121.2561 314° West 361 415 14,000 -2,160 Descending Oakland Center
09:42PM 38.2667 -121.3000 324° Northwest 359 413 12,700 -2,100 Descending Northern Cal TRACON
09:43PM 38.3333 -121.4000 310° West 352 405 10,800 -1,500 Descending Northern Cal TRACON
09:44PM 38.3833 -121.4833 307° West 310 357 9,700 -1,260 Descending Northern Cal TRACON
09:44PM 38.4333 -121.5500 314° West 303 349 8,500 -1,500 Descending Northern Cal TRACON
09:46PM 38.5167 -121.6000 335° Northwest 295 339 6,800 -1,500 Descending Northern Cal TRACON
09:46PM 38.5500 -121.6336 322° Northwest 291 335 6,100 -1,380 Descending Oakland Center
09:47PM 38.6172 -121.6847 329° Northwest 282 325 4,700 -1,020 Descending Oakland Center
09:48PM 38.6878 -121.6958 353° North 261 300 4,100 -600 Descending Oakland Center
09:49PM 38.7483 -121.6758 14° North 228 262 3,600 -780 Descending Oakland Center
09:50PM 38.7861 -121.6461 32° Northeast 179 206 2,600 -1,260 Descending Oakland Center
09:51PM 38.7664 -121.6033 121° Southeast 156 180 1,100 -1,140 Descending Oakland Center
09:52PM 38.7281 -121.6000 176° South 143 165 400 -480 Descending Oakland Center
09:53PM 38.6833 -121.6006 181° South 141 162 200 -240 Descending Oakland Center